createdAt,value
2022-12-11T00:00:17.958Z,20.57
2022-12-11T00:02:45.664Z,20.83
2022-12-11T00:05:13.416Z,23.00
2022-12-11T00:07:41.366Z,22.37
2022-12-11T00:10:09.474Z,22.63
2022-12-11T00:12:36.083Z,21.30
2022-12-11T00:15:03.281Z,24.50
2022-12-11T00:17:30.701Z,22.23
2022-12-11T00:19:57.688Z,20.37
2022-12-11T00:22:25.185Z,22.57
2022-12-11T00:24:52.643Z,24.07
2022-12-11T00:27:20.277Z,19.67
2022-12-11T00:29:47.824Z,22.43
2022-12-11T00:32:15.392Z,21.70
2022-12-11T00:34:43.098Z,24.53
2022-12-11T00:37:10.710Z,20.53
2022-12-11T00:39:40.233Z,21.83
2022-12-11T00:42:08.592Z,21.53
2022-12-11T00:44:36.587Z,21.20
2022-12-11T00:47:04.374Z,20.70
2022-12-11T00:49:31.607Z,20.80
2022-12-11T00:51:58.771Z,22.53
2022-12-11T00:54:26.291Z,23.20
2022-12-11T00:56:56.285Z,27.30
2022-12-11T00:59:23.683Z,26.27
2022-12-11T01:01:52.178Z,25.37
2022-12-11T01:04:19.327Z,33.33
2022-12-11T01:06:46.726Z,28.50
2022-12-11T01:09:32.817Z,24.47
2022-12-11T01:11:59.619Z,29.07
2022-12-11T01:14:26.755Z,26.20
2022-12-11T01:16:53.743Z,26.37
2022-12-11T01:19:20.329Z,24.47
2022-12-11T01:21:46.926Z,27.07
2022-12-11T01:24:13.499Z,29.50
2022-12-11T01:26:40.102Z,28.47
2022-12-11T01:29:06.654Z,23.67
2022-12-11T01:31:34.024Z,21.13
2022-12-11T01:34:00.650Z,19.73
2022-12-11T01:36:27.273Z,21.50
2022-12-11T01:38:54.482Z,20.73
2022-12-11T01:41:21.683Z,23.07
2022-12-11T01:43:58.200Z,20.17
2022-12-11T01:46:25.439Z,19.63
2022-12-11T01:48:53.667Z,19.87
2022-12-11T01:51:21.393Z,19.70
2022-12-11T01:53:55.828Z,19.93
2022-12-11T01:56:23.016Z,21.93
2022-12-11T01:58:56.983Z,20.30
2022-12-11T02:01:34.705Z,24.40
2022-12-11T02:04:02.310Z,24.50
2022-12-11T02:06:42.940Z,23.40
2022-12-11T02:09:14.348Z,21.33
2022-12-11T02:12:01.034Z,23.43
2022-12-11T02:14:53.610Z,21.87
2022-12-11T02:17:26.147Z,20.97
2022-12-11T02:20:03.896Z,22.47
2022-12-11T02:22:42.749Z,22.43
2022-12-11T02:25:25.739Z,22.37
2022-12-11T02:28:26.636Z,22.63
2022-12-11T02:31:00.692Z,23.93
2022-12-11T02:33:37.198Z,28.47
2022-12-11T02:36:07.966Z,30.50
2022-12-11T02:38:39.395Z,28.07
2022-12-11T02:41:08.291Z,27.83
2022-12-11T02:43:37.885Z,29.87
2022-12-11T02:46:07.615Z,29.70
2022-12-11T02:48:35.994Z,28.03
2022-12-11T02:51:05.408Z,29.37
2022-12-11T02:53:35.302Z,29.03
2022-12-11T02:56:10.346Z,26.90
2022-12-11T02:58:47.714Z,25.97
2022-12-11T03:01:14.589Z,29.23
2022-12-11T03:03:41.469Z,27.83
2022-12-11T03:06:13.364Z,26.00
2022-12-11T03:08:39.964Z,25.53
2022-12-11T03:11:10.858Z,29.23
2022-12-11T03:13:39.058Z,24.37
2022-12-11T03:16:08.425Z,26.83
2022-12-11T03:18:56.151Z,28.40
2022-12-11T03:21:53.454Z,26.40
2022-12-11T03:24:30.538Z,28.90
2022-12-11T03:27:11.017Z,26.60
2022-12-11T03:29:45.141Z,27.57
2022-12-11T03:32:23.055Z,27.50
2022-12-11T03:35:09.869Z,26.53
2022-12-11T03:37:39.061Z,24.13
2022-12-11T03:40:13.189Z,26.43
2022-12-11T03:42:42.429Z,26.57
2022-12-11T03:45:09.921Z,28.33
2022-12-11T03:47:39.531Z,26.07
2022-12-11T03:50:09.622Z,26.43
2022-12-11T03:52:45.302Z,25.40
2022-12-11T03:55:15.163Z,27.67
2022-12-11T03:57:41.829Z,25.57
2022-12-11T04:00:15.341Z,26.43
2022-12-11T04:02:42.771Z,24.83
2022-12-11T04:05:11.114Z,27.00
2022-12-11T04:07:38.006Z,25.97
2022-12-11T04:10:05.754Z,24.80
2022-12-11T04:12:32.367Z,29.57
2022-12-11T04:15:04.664Z,25.80
2022-12-11T04:17:52.800Z,29.07
2022-12-11T04:20:39.029Z,24.63
2022-12-11T04:23:32.829Z,23.77
2022-12-11T04:26:20.335Z,27.00
2022-12-11T04:28:48.453Z,27.67
2022-12-11T04:31:17.925Z,27.00
2022-12-11T04:33:44.646Z,26.90
2022-12-11T04:36:12.267Z,28.53
2022-12-11T04:38:39.213Z,29.63
2022-12-11T04:41:09.313Z,29.27
2022-12-11T04:43:36.478Z,25.83
2022-12-11T04:46:07.401Z,27.70
2022-12-11T04:48:34.423Z,33.83
2022-12-11T04:51:01.049Z,28.67
2022-12-11T04:53:28.248Z,32.20
2022-12-11T04:55:55.621Z,31.83
2022-12-11T04:58:22.767Z,35.90
2022-12-11T05:00:49.354Z,35.20
2022-12-11T05:03:16.043Z,35.47
2022-12-11T05:05:48.553Z,32.40
2022-12-11T05:08:15.162Z,29.20
2022-12-11T05:10:44.528Z,31.03
2022-12-11T05:13:15.203Z,28.40
2022-12-11T05:15:41.803Z,28.20
2022-12-11T05:18:08.473Z,28.73
2022-12-11T05:20:35.133Z,28.70
2022-12-11T05:23:01.792Z,26.87
2022-12-11T05:25:28.472Z,26.87
2022-12-11T05:27:55.131Z,26.50
2022-12-11T05:30:21.699Z,27.67
2022-12-11T05:32:48.330Z,25.30
2022-12-11T05:35:15.032Z,26.00
2022-12-11T05:37:41.601Z,26.40
2022-12-11T05:40:09.020Z,25.17
2022-12-11T05:42:35.696Z,26.00
2022-12-11T05:45:02.346Z,23.50
2022-12-11T05:47:28.929Z,26.00
2022-12-11T05:49:55.565Z,25.00
2022-12-11T05:52:22.225Z,22.33
2022-12-11T05:54:50.481Z,22.90
2022-12-11T05:57:17.388Z,26.37
2022-12-11T05:59:43.974Z,24.30
2022-12-11T06:02:10.636Z,24.37
2022-12-11T06:04:37.288Z,26.27
2022-12-11T06:07:03.885Z,26.13
2022-12-11T06:09:30.599Z,23.77
2022-12-11T06:11:57.141Z,25.30
2022-12-11T06:14:23.734Z,25.63
2022-12-11T06:16:50.426Z,25.83
2022-12-11T06:19:18.521Z,26.83
2022-12-11T06:21:46.461Z,24.27
2022-12-11T06:24:13.027Z,27.93
2022-12-11T06:26:39.656Z,23.83
2022-12-11T06:29:10.945Z,25.53
2022-12-11T06:31:39.623Z,21.97
2022-12-11T06:34:06.526Z,25.73
2022-12-11T06:36:33.199Z,23.53
2022-12-11T06:38:59.808Z,24.20
2022-12-11T06:41:26.389Z,24.10
2022-12-11T06:43:53.041Z,22.27
2022-12-11T06:46:20.831Z,25.00
2022-12-11T06:48:48.771Z,23.80
2022-12-11T06:51:19.151Z,25.53
2022-12-11T06:53:45.916Z,25.43
2022-12-11T06:56:15.462Z,25.87
2022-12-11T06:58:44.014Z,26.43
2022-12-11T07:01:19.951Z,24.70
2022-12-11T07:03:47.120Z,27.17
2022-12-11T07:06:14.649Z,24.57
2022-12-11T07:08:41.315Z,25.53
2022-12-11T07:11:11.447Z,26.50
2022-12-11T07:13:38.536Z,28.20
2022-12-11T07:16:11.047Z,27.57
2022-12-11T07:18:43.241Z,26.90
2022-12-11T07:21:12.388Z,29.50
2022-12-11T07:23:39.626Z,28.40
2022-12-11T07:26:08.694Z,27.40
2022-12-11T07:28:35.418Z,31.37
2022-12-11T07:31:10.081Z,26.70
2022-12-11T07:33:36.715Z,37.43
2022-12-11T07:36:05.920Z,27.37
2022-12-11T07:38:32.511Z,29.50
2022-12-11T07:41:06.582Z,27.30
2022-12-11T07:43:34.045Z,31.93
2022-12-11T07:46:02.738Z,28.93
2022-12-11T07:48:30.180Z,33.30
2022-12-11T07:51:07.006Z,30.33
2022-12-11T07:53:33.564Z,31.70
2022-12-11T07:56:00.193Z,27.87
2022-12-11T07:58:27.927Z,30.83
2022-12-11T08:00:54.552Z,28.03
2022-12-11T08:03:21.821Z,29.40
2022-12-11T08:05:50.018Z,28.77
2022-12-11T08:08:16.843Z,29.57
2022-12-11T08:10:43.562Z,30.77
2022-12-11T08:13:10.233Z,30.87
2022-12-11T08:15:37.472Z,25.97
2022-12-11T08:18:04.638Z,27.93
2022-12-11T08:20:31.379Z,26.50
2022-12-11T08:22:59.276Z,29.37
2022-12-11T08:25:26.021Z,49.33
2022-12-11T08:27:52.600Z,37.90
2022-12-11T08:30:19.207Z,34.50
2022-12-11T08:32:45.806Z,33.70
2022-12-11T08:35:12.817Z,27.30
2022-12-11T08:37:40.161Z,29.07
2022-12-11T08:40:07.661Z,32.43
2022-12-11T08:42:34.341Z,31.13
2022-12-11T08:45:00.945Z,30.30
2022-12-11T08:47:27.835Z,34.40
2022-12-11T08:49:54.449Z,31.07
2022-12-11T08:52:21.016Z,25.40
2022-12-11T08:54:48.318Z,29.90
2022-12-11T08:57:15.336Z,30.33
2022-12-11T08:59:41.919Z,30.73
2022-12-11T09:02:12.422Z,29.83
2022-12-11T09:04:39.138Z,29.50
2022-12-11T09:07:06.024Z,33.27
2022-12-11T09:09:32.626Z,37.83
2022-12-11T09:12:01.565Z,28.47
2022-12-11T09:14:28.160Z,44.87
2022-12-11T09:16:54.765Z,31.57
2022-12-11T09:19:21.342Z,31.40
2022-12-11T09:21:48.581Z,29.63
2022-12-11T09:24:15.584Z,29.57
2022-12-11T09:26:42.366Z,39.63
2022-12-11T09:29:10.282Z,28.73
2022-12-11T09:31:37.395Z,25.30
2022-12-11T09:34:06.975Z,26.67
2022-12-11T09:36:34.192Z,28.73
2022-12-11T09:39:05.738Z,32.10
2022-12-11T09:41:46.711Z,31.90
2022-12-11T09:44:20.885Z,28.67
2022-12-11T09:46:48.957Z,27.67
2022-12-11T09:49:35.207Z,37.50
2022-12-11T09:52:19.566Z,37.10
2022-12-11T09:55:00.193Z,31.37
2022-12-11T09:57:40.370Z,30.20
2022-12-11T10:00:11.315Z,27.63
2022-12-11T10:03:03.107Z,28.07
2022-12-11T10:05:32.333Z,25.97
2022-12-11T10:08:20.068Z,25.07
2022-12-11T10:11:06.945Z,26.30
2022-12-11T10:13:57.774Z,25.07
2022-12-11T10:16:44.211Z,25.83
2022-12-11T10:19:22.102Z,23.07
2022-12-11T10:21:51.195Z,24.33
2022-12-11T10:25:07.448Z,24.97
2022-12-11T10:27:21.821Z,27.87
2022-12-11T10:30:18.940Z,23.87
2022-12-11T10:33:01.796Z,23.30
2022-12-11T10:35:54.732Z,22.40
2022-12-11T10:38:32.495Z,22.00
2022-12-11T10:41:21.025Z,20.90
2022-12-11T10:43:49.711Z,21.63
2022-12-11T10:46:25.521Z,22.33
2022-12-11T10:49:00.273Z,23.53
2022-12-11T10:51:32.705Z,26.43
2022-12-11T10:54:29.247Z,22.00
2022-12-11T10:56:58.113Z,19.60
2022-12-11T10:59:37.929Z,18.90
2022-12-11T11:02:07.550Z,19.83
2022-12-11T11:04:39.004Z,22.93
2022-12-11T11:07:21.881Z,19.97
2022-12-11T11:09:49.206Z,26.90
2022-12-11T11:12:20.614Z,24.80
2022-12-11T11:14:47.410Z,33.43
2022-12-11T11:17:16.790Z,20.73
2022-12-11T11:19:48.250Z,25.07
2022-12-11T11:22:17.989Z,23.33
2022-12-11T11:24:56.030Z,28.33
2022-12-11T11:28:00.109Z,23.87
2022-12-11T11:30:35.597Z,18.17
2022-12-11T11:33:05.397Z,19.50
2022-12-11T11:35:32.965Z,19.10
2022-12-11T11:38:05.815Z,17.90
2022-12-11T11:41:13.160Z,19.40
2022-12-11T11:43:49.722Z,17.77
2022-12-11T11:46:30.349Z,18.57
2022-12-11T11:49:18.720Z,17.17
2022-12-11T11:51:51.544Z,18.80
2022-12-11T11:54:31.571Z,16.70
2022-12-11T11:57:02.121Z,21.33
2022-12-11T11:59:34.445Z,21.60
2022-12-11T12:02:01.098Z,17.63
2022-12-11T12:04:34.975Z,18.97
2022-12-11T12:07:29.445Z,17.03
2022-12-11T12:10:37.441Z,16.00
2022-12-11T12:13:48.171Z,20.30
2022-12-11T12:19:45.355Z,23.83
2022-12-11T12:22:32.046Z,28.33
2022-12-11T12:25:17.119Z,20.07
2022-12-11T12:27:59.535Z,25.10
2022-12-11T12:30:32.358Z,21.83
2022-12-11T12:33:15.165Z,17.97
2022-12-11T12:35:54.595Z,17.80
2022-12-11T12:38:30.307Z,22.00
2022-12-11T12:41:04.318Z,16.33
2022-12-11T12:43:52.735Z,16.13
2022-12-11T12:46:59.450Z,17.37
2022-12-11T12:49:41.228Z,20.40
2022-12-11T12:52:38.718Z,15.63
2022-12-11T12:55:28.915Z,16.47
2022-12-11T12:58:05.314Z,17.73
2022-12-11T13:00:38.819Z,18.03
2022-12-11T13:03:17.914Z,18.67
2022-12-11T13:06:04.759Z,19.90
2022-12-11T13:08:40.126Z,17.73
2022-12-11T13:11:10.530Z,30.47
2022-12-11T13:13:39.893Z,21.93
2022-12-11T13:16:27.205Z,17.53
2022-12-11T13:18:54.534Z,18.83
2022-12-11T13:21:36.039Z,18.10
2022-12-11T13:24:26.846Z,19.63
2022-12-11T13:26:53.959Z,18.20
2022-12-11T13:29:41.496Z,25.43
2022-12-11T13:32:07.998Z,18.17
2022-12-11T13:34:37.828Z,19.73
2022-12-11T13:37:05.917Z,19.73
2022-12-11T13:39:37.496Z,21.63
2022-12-11T13:42:23.698Z,17.83
2022-12-11T13:44:51.502Z,17.53
2022-12-11T13:47:19.843Z,20.57
2022-12-11T13:49:50.758Z,25.17
2022-12-11T13:52:21.226Z,15.93
2022-12-11T13:54:50.903Z,17.37
2022-12-11T13:57:21.015Z,21.73
2022-12-11T13:59:54.198Z,18.60
2022-12-11T14:02:34.186Z,17.63
2022-12-11T14:05:05.302Z,22.13
2022-12-11T14:07:38.927Z,30.53
2022-12-11T14:10:18.596Z,19.23
2022-12-11T14:13:01.645Z,21.50
2022-12-11T14:15:30.206Z,17.00
2022-12-11T14:17:58.957Z,22.23
2022-12-11T14:20:29.121Z,20.80
2022-12-11T14:23:20.462Z,17.47
2022-12-11T14:25:57.354Z,18.07
2022-12-11T14:28:27.645Z,18.80
2022-12-11T14:30:59.628Z,19.57
2022-12-11T14:33:32.428Z,17.90
2022-12-11T14:36:00.390Z,17.17
2022-12-11T14:38:35.058Z,18.77
2022-12-11T14:41:10.906Z,18.80
2022-12-11T14:43:45.338Z,19.27
2022-12-11T14:46:18.193Z,19.27
2022-12-11T14:48:49.868Z,21.27
2022-12-11T14:51:19.441Z,18.97
2022-12-11T14:53:52.440Z,23.43
2022-12-11T14:56:23.534Z,26.57
2022-12-11T14:58:56.430Z,26.10
2022-12-11T15:01:28.294Z,21.93
2022-12-11T15:04:14.722Z,20.77
2022-12-11T15:06:47.435Z,25.67
2022-12-11T15:09:33.456Z,29.53
2022-12-11T15:12:18.427Z,24.23
2022-12-11T15:14:57.632Z,20.27
2022-12-11T15:17:26.071Z,18.43
2022-12-11T15:20:02.693Z,19.00
2022-12-11T15:22:32.275Z,21.13
2022-12-11T15:25:00.204Z,20.47
2022-12-11T15:27:37.481Z,16.70
2022-12-11T15:30:28.314Z,17.43
2022-12-11T15:33:17.368Z,17.27
2022-12-11T15:35:54.204Z,16.23
2022-12-11T15:38:34.197Z,17.43
2022-12-11T15:41:01.997Z,19.53
2022-12-11T15:43:31.934Z,19.33
2022-12-11T15:45:59.299Z,19.57
2022-12-11T15:48:25.902Z,22.40
2022-12-11T15:50:52.561Z,19.73
2022-12-11T15:53:19.607Z,19.50
2022-12-11T15:55:46.656Z,15.80
2022-12-11T15:58:17.490Z,18.33
2022-12-11T16:00:44.702Z,17.80
2022-12-11T16:03:14.129Z,21.87
2022-12-11T16:05:41.933Z,18.33
2022-12-11T16:08:14.991Z,19.73
2022-12-11T16:10:46.094Z,17.07
2022-12-11T16:13:13.640Z,16.53
2022-12-11T16:15:42.760Z,18.97
2022-12-11T16:18:11.977Z,19.63
2022-12-11T16:20:40.947Z,23.70
2022-12-11T16:23:08.443Z,22.57
2022-12-11T16:25:37.756Z,24.37
2022-12-11T16:28:05.141Z,18.93
2022-12-11T16:30:31.766Z,24.83
2022-12-11T16:32:58.334Z,23.23
2022-12-11T16:35:24.904Z,48.40
2022-12-11T16:37:53.585Z,38.43
2022-12-11T16:40:21.002Z,30.07
2022-12-11T16:42:47.939Z,38.30
2022-12-11T16:45:23.972Z,21.77
2022-12-11T16:47:50.781Z,18.63
2022-12-11T16:50:18.277Z,21.03
2022-12-11T16:52:45.385Z,23.97
2022-12-11T16:55:13.424Z,31.77
2022-12-11T16:57:40.551Z,33.73
2022-12-11T17:00:09.508Z,25.23
2022-12-11T17:02:36.475Z,29.00
2022-12-11T17:05:03.832Z,50.20
2022-12-11T17:07:32.252Z,29.27
2022-12-11T17:09:58.885Z,37.57
2022-12-11T17:12:27.564Z,15.80
2022-12-11T17:14:55.011Z,13.80
2022-12-11T17:17:21.621Z,22.03
2022-12-11T17:19:48.275Z,18.03
2022-12-11T17:22:15.308Z,15.47
2022-12-11T17:24:41.959Z,18.00
2022-12-11T17:27:08.615Z,16.80
2022-12-11T17:29:35.209Z,16.27
2022-12-11T17:32:03.310Z,17.90
2022-12-11T17:34:36.053Z,19.77
2022-12-11T17:37:04.828Z,13.77
2022-12-11T17:39:31.502Z,15.93
2022-12-11T17:41:58.169Z,17.27
2022-12-11T17:44:26.567Z,15.90
2022-12-11T17:46:53.744Z,24.63
2022-12-11T17:49:20.531Z,15.27
2022-12-11T17:51:47.994Z,17.00
2022-12-11T17:54:15.117Z,17.30
2022-12-11T17:56:41.746Z,14.57
2022-12-11T17:59:08.419Z,14.87
2022-12-11T18:01:35.143Z,15.10
2022-12-11T18:04:02.333Z,14.80
2022-12-11T18:06:29.925Z,18.10
2022-12-11T18:08:57.343Z,16.10
2022-12-11T18:11:24.642Z,18.03
2022-12-11T18:13:52.800Z,12.57
2022-12-11T18:16:29.000Z,15.73
2022-12-11T18:18:56.584Z,16.20
2022-12-11T18:21:26.759Z,18.07
2022-12-11T18:23:54.183Z,20.77
2022-12-11T18:26:20.898Z,19.23
2022-12-11T18:28:48.405Z,21.30
2022-12-11T18:31:15.815Z,18.43
2022-12-11T18:33:44.784Z,18.37
2022-12-11T18:36:14.560Z,17.20
2022-12-11T18:38:42.216Z,17.23
2022-12-11T18:41:10.390Z,31.47
2022-12-11T18:43:37.387Z,29.30
2022-12-11T18:46:14.101Z,23.47
2022-12-11T18:48:42.292Z,21.50
2022-12-11T18:51:12.143Z,17.60
2022-12-11T18:53:41.709Z,14.23
2022-12-11T18:56:11.878Z,12.30
2022-12-11T18:58:38.799Z,15.00
2022-12-11T19:01:11.073Z,18.93
2022-12-11T19:03:38.825Z,18.47
2022-12-11T19:06:28.507Z,18.30
2022-12-11T19:08:55.159Z,17.87
2022-12-11T19:11:24.566Z,17.23
2022-12-11T19:13:53.470Z,16.33
2022-12-11T19:16:22.744Z,20.07
2022-12-11T19:18:50.246Z,16.43
2022-12-11T19:21:17.956Z,19.37
2022-12-11T19:23:45.532Z,19.20
2022-12-11T19:26:20.915Z,17.33
2022-12-11T19:28:48.779Z,18.03
2022-12-11T19:31:22.499Z,17.80
2022-12-11T19:33:50.051Z,17.93
2022-12-11T19:36:19.992Z,17.17
2022-12-11T19:38:47.147Z,18.23
2022-12-11T19:41:26.735Z,16.97
2022-12-11T19:43:54.698Z,16.87
2022-12-11T19:46:23.069Z,16.23
2022-12-11T19:48:52.209Z,18.33
2022-12-11T19:51:33.902Z,15.70
2022-12-11T19:54:02.913Z,16.80
2022-12-11T19:56:29.934Z,16.10
2022-12-11T19:58:56.883Z,15.77
2022-12-11T20:01:28.706Z,16.37
2022-12-11T20:03:59.658Z,16.87
2022-12-11T20:06:32.426Z,15.90
2022-12-11T20:08:59.842Z,17.83
2022-12-11T20:11:26.760Z,19.07
2022-12-11T20:13:55.548Z,17.90
2022-12-11T20:16:39.456Z,17.53
2022-12-11T20:19:09.049Z,17.27
2022-12-11T20:21:35.641Z,20.53
2022-12-11T20:24:02.214Z,13.63
2022-12-11T20:26:31.043Z,16.43
2022-12-11T20:28:57.722Z,16.43
2022-12-11T20:31:25.842Z,16.60
2022-12-11T20:33:55.534Z,16.13
2022-12-11T20:36:23.371Z,17.97
2022-12-11T20:38:50.937Z,22.83
2022-12-11T20:41:20.576Z,24.73
2022-12-11T20:43:49.096Z,22.77
2022-12-11T20:46:17.208Z,23.10
2022-12-11T20:48:44.801Z,16.00
2022-12-11T20:51:13.112Z,16.33
2022-12-11T20:53:41.046Z,19.13
2022-12-11T20:56:16.795Z,17.97
2022-12-11T20:58:43.885Z,14.40
2022-12-11T21:01:19.299Z,14.97
2022-12-11T21:03:46.773Z,13.87
2022-12-11T21:06:25.751Z,14.50
2022-12-11T21:08:54.307Z,13.93
2022-12-11T21:11:21.743Z,15.83
2022-12-11T21:13:51.629Z,14.60
2022-12-11T21:16:19.300Z,12.27
2022-12-11T21:18:46.641Z,14.07
2022-12-11T21:21:14.535Z,18.10
2022-12-11T21:23:41.731Z,19.17
2022-12-11T21:26:09.018Z,22.00
2022-12-11T21:28:35.996Z,18.40
2022-12-11T21:31:05.414Z,18.90
2022-12-11T21:33:32.351Z,18.57
2022-12-11T21:36:00.794Z,21.20
2022-12-11T21:38:28.948Z,16.13
2022-12-11T21:40:56.183Z,13.53
2022-12-11T21:43:24.786Z,15.60
2022-12-11T21:46:00.811Z,13.77
2022-12-11T21:48:30.808Z,21.67
2022-12-11T21:51:37.968Z,19.07
2022-12-11T21:54:07.598Z,19.20
2022-12-11T21:56:34.662Z,17.17
2022-12-11T21:59:04.080Z,15.43
2022-12-11T22:01:37.366Z,14.70
2022-12-11T22:04:05.743Z,13.77
2022-12-11T22:06:33.393Z,13.40
2022-12-11T22:09:00.296Z,14.27
2022-12-11T22:11:31.229Z,16.17
2022-12-11T22:13:57.919Z,11.97
2022-12-11T22:16:24.771Z,13.63
2022-12-11T22:18:52.507Z,12.40
2022-12-11T22:21:19.303Z,18.33
2022-12-11T22:23:46.285Z,12.50
2022-12-11T22:26:20.525Z,12.97
2022-12-11T22:28:47.318Z,14.17
2022-12-11T22:31:16.896Z,11.43
2022-12-11T22:33:44.590Z,11.77
2022-12-11T22:36:11.453Z,14.00
2022-12-11T22:38:38.369Z,15.50
2022-12-11T22:41:26.006Z,16.20
2022-12-11T22:43:53.198Z,16.57
2022-12-11T22:46:22.550Z,12.60
2022-12-11T22:48:49.660Z,13.67
2022-12-11T22:51:16.677Z,14.67
2022-12-11T22:53:43.728Z,13.70
2022-12-11T22:56:12.401Z,14.93
2022-12-11T22:58:40.004Z,15.10
2022-12-11T23:01:12.894Z,14.53
2022-12-11T23:03:39.738Z,14.90
2022-12-11T23:06:08.594Z,15.00
2022-12-11T23:08:35.909Z,15.37
2022-12-11T23:11:09.239Z,13.90
2022-12-11T23:13:35.835Z,15.00
2022-12-11T23:16:02.431Z,12.60
2022-12-11T23:18:29.051Z,12.30
2022-12-11T23:20:55.912Z,13.17
2022-12-11T23:23:22.600Z,13.07
2022-12-11T23:25:49.203Z,14.23
2022-12-11T23:28:15.815Z,17.43
2022-12-11T23:30:42.391Z,19.83
2022-12-11T23:33:09.044Z,19.10
2022-12-11T23:35:35.714Z,19.23
2022-12-11T23:38:02.932Z,18.23
2022-12-11T23:40:29.523Z,18.20
2022-12-11T23:42:56.213Z,16.57
2022-12-11T23:45:23.363Z,16.83
2022-12-11T23:47:50.038Z,16.23
2022-12-11T23:50:17.838Z,17.77
2022-12-11T23:52:44.462Z,16.90
2022-12-11T23:55:11.742Z,15.77
2022-12-11T23:57:38.651Z,17.13
